createdAt,value
2023-02-15T00:00:49.652Z,24.77
2023-02-15T00:03:18.512Z,21.75
2023-02-15T00:05:48.142Z,23.92
2023-02-15T00:08:16.706Z,24.73
2023-02-15T00:10:44.980Z,24.98
2023-02-15T00:13:13.540Z,23.85
2023-02-15T00:15:42.110Z,24.38
2023-02-15T00:18:12.405Z,23.65
2023-02-15T00:20:40.763Z,23.10
2023-02-15T00:23:10.791Z,25.63
2023-02-15T00:25:39.112Z,23.48
2023-02-15T00:28:11.957Z,22.63
2023-02-15T00:30:45.041Z,23.40
2023-02-15T00:33:13.593Z,22.63
2023-02-15T00:35:42.570Z,20.67
2023-02-15T00:38:13.672Z,20.23
2023-02-15T00:40:42.068Z,17.63
2023-02-15T00:43:10.492Z,13.90
2023-02-15T00:45:39.762Z,12.00
2023-02-15T00:48:08.064Z,11.48
2023-02-15T00:50:36.330Z,11.63
2023-02-15T00:53:05.214Z,11.90
2023-02-15T00:55:35.016Z,10.93
2023-02-15T00:58:05.461Z,11.00
2023-02-15T01:00:33.773Z,10.68
2023-02-15T01:03:02.188Z,11.40
2023-02-15T01:05:31.637Z,11.43
2023-02-15T01:08:00.005Z,12.27
2023-02-15T01:10:30.672Z,11.68
2023-02-15T01:13:00.443Z,12.57
2023-02-15T01:15:28.826Z,12.75
2023-02-15T01:17:57.223Z,11.73
2023-02-15T01:20:27.518Z,12.40
2023-02-15T01:22:59.101Z,11.45
2023-02-15T01:25:30.410Z,12.60
2023-02-15T01:28:00.020Z,12.05
2023-02-15T01:30:30.733Z,13.18
2023-02-15T01:32:59.229Z,11.52
2023-02-15T01:35:29.893Z,11.77
2023-02-15T01:37:58.712Z,11.43
2023-02-15T01:40:30.017Z,13.15
2023-02-15T01:42:59.926Z,12.30
2023-02-15T01:45:31.871Z,12.68
2023-02-15T01:48:03.086Z,13.38
2023-02-15T01:50:34.124Z,13.32
2023-02-15T01:53:05.896Z,13.13
2023-02-15T01:55:36.104Z,12.60
2023-02-15T01:58:06.028Z,13.13
2023-02-15T02:00:34.912Z,13.68
2023-02-15T02:03:04.170Z,14.43
2023-02-15T02:05:32.620Z,15.60
2023-02-15T02:08:04.197Z,14.80
2023-02-15T02:10:33.436Z,14.10
2023-02-15T02:13:02.753Z,14.60
2023-02-15T02:15:36.950Z,14.35
2023-02-15T02:18:12.637Z,15.68
2023-02-15T02:20:52.150Z,14.60
2023-02-15T02:23:34.446Z,15.10
2023-02-15T02:26:22.606Z,17.98
2023-02-15T02:29:06.822Z,17.33
2023-02-15T02:31:44.123Z,16.75
2023-02-15T02:34:19.508Z,16.42
2023-02-15T02:36:52.882Z,18.88
2023-02-15T02:39:26.428Z,19.00
2023-02-15T02:42:08.382Z,18.75
2023-02-15T02:44:43.886Z,16.88
2023-02-15T02:47:16.372Z,17.45
2023-02-15T02:49:46.597Z,15.38
2023-02-15T02:52:32.897Z,16.52
2023-02-15T02:55:01.963Z,17.98
2023-02-15T02:57:33.724Z,17.20
2023-02-15T03:00:09.488Z,17.67
2023-02-15T03:02:40.573Z,18.10
2023-02-15T03:05:12.532Z,17.38
2023-02-15T03:07:42.215Z,17.65
2023-02-15T03:10:12.363Z,17.42
2023-02-15T03:12:42.147Z,16.25
2023-02-15T03:15:12.648Z,17.98
2023-02-15T03:17:45.138Z,17.02
2023-02-15T03:20:17.042Z,17.83
2023-02-15T03:22:52.022Z,16.17
2023-02-15T03:25:25.062Z,18.13
2023-02-15T03:27:56.927Z,18.48
2023-02-15T03:30:25.450Z,17.70
2023-02-15T03:32:58.451Z,16.85
2023-02-15T03:35:29.528Z,17.02
2023-02-15T03:38:02.552Z,17.42
2023-02-15T03:41:01.420Z,17.70
2023-02-15T03:43:33.436Z,18.05
2023-02-15T03:46:06.842Z,17.10
2023-02-15T03:48:37.785Z,17.00
2023-02-15T03:51:28.234Z,17.17
2023-02-15T03:53:59.972Z,16.85
2023-02-15T03:56:30.726Z,16.38
2023-02-15T03:59:16.339Z,15.82
2023-02-15T04:01:59.123Z,17.10
2023-02-15T04:04:29.278Z,15.65
2023-02-15T04:06:58.962Z,15.80
2023-02-15T04:09:45.188Z,16.33
2023-02-15T04:12:13.705Z,15.40
2023-02-15T04:14:59.970Z,14.60
2023-02-15T04:17:28.272Z,13.32
2023-02-15T04:20:14.624Z,13.70
2023-02-15T04:23:02.092Z,13.68
2023-02-15T04:25:30.354Z,13.45
2023-02-15T04:27:58.723Z,13.45
2023-02-15T04:30:30.058Z,12.55
2023-02-15T04:32:58.785Z,13.98
2023-02-15T04:35:29.394Z,13.15
2023-02-15T04:37:58.962Z,14.10
2023-02-15T04:40:27.337Z,14.63
2023-02-15T04:42:55.554Z,13.85
2023-02-15T04:45:23.901Z,14.85
2023-02-15T04:47:52.256Z,15.80
2023-02-15T04:50:22.903Z,14.43
2023-02-15T04:52:51.248Z,15.23
2023-02-15T04:55:20.921Z,14.13
2023-02-15T04:57:49.206Z,13.82
2023-02-15T05:00:17.836Z,14.70
2023-02-15T05:02:50.578Z,14.73
2023-02-15T05:05:18.931Z,16.35
2023-02-15T05:07:47.623Z,16.55
2023-02-15T05:10:18.224Z,15.50
2023-02-15T05:12:48.141Z,16.35
2023-02-15T05:15:16.682Z,16.33
2023-02-15T05:17:45.012Z,17.85
2023-02-15T05:20:15.877Z,17.42
2023-02-15T05:22:48.772Z,16.25
2023-02-15T05:25:35.089Z,16.95
2023-02-15T05:28:22.562Z,16.40
2023-02-15T05:30:51.261Z,16.63
2023-02-15T05:33:19.775Z,16.23
2023-02-15T05:35:48.060Z,16.60
2023-02-15T05:38:16.763Z,14.10
2023-02-15T05:40:45.002Z,16.58
2023-02-15T05:43:15.258Z,16.50
2023-02-15T05:45:53.980Z,16.02
2023-02-15T05:48:25.570Z,16.58
2023-02-15T05:50:59.439Z,15.93
2023-02-15T05:53:28.112Z,16.48
2023-02-15T05:56:01.463Z,16.10
2023-02-15T05:58:33.038Z,14.48
2023-02-15T06:01:01.275Z,13.88
2023-02-15T06:03:36.971Z,13.40
2023-02-15T06:06:05.595Z,12.88
2023-02-15T06:08:34.029Z,12.77
2023-02-15T06:11:02.451Z,13.52
2023-02-15T06:13:32.294Z,13.75
2023-02-15T06:16:00.968Z,13.45
2023-02-15T06:18:29.532Z,13.67
2023-02-15T06:21:02.243Z,12.55
2023-02-15T06:23:32.643Z,12.48
2023-02-15T06:26:01.320Z,13.15
2023-02-15T06:28:29.764Z,12.07
2023-02-15T06:30:59.450Z,11.88
2023-02-15T06:33:34.697Z,11.50
2023-02-15T06:36:04.955Z,12.13
2023-02-15T06:38:33.404Z,12.48
2023-02-15T06:41:01.724Z,12.32
2023-02-15T06:43:35.215Z,12.40
2023-02-15T06:46:05.412Z,13.65
2023-02-15T06:48:33.786Z,12.13
2023-02-15T06:51:02.240Z,12.35
2023-02-15T06:53:30.691Z,13.32
2023-02-15T06:56:03.921Z,13.90
2023-02-15T06:58:32.374Z,12.02
2023-02-15T07:01:00.584Z,21.00
2023-02-15T07:03:30.236Z,22.27
2023-02-15T07:06:01.661Z,18.20
2023-02-15T07:08:30.600Z,18.17
2023-02-15T07:11:19.511Z,16.65
2023-02-15T07:13:47.066Z,15.80
2023-02-15T07:16:17.987Z,15.07
2023-02-15T07:18:48.386Z,15.10
2023-02-15T07:21:16.715Z,13.35
2023-02-15T07:23:45.015Z,14.25
2023-02-15T07:26:13.659Z,15.63
2023-02-15T07:28:41.942Z,15.88
2023-02-15T07:31:10.517Z,16.45
2023-02-15T07:33:45.703Z,17.77
2023-02-15T07:36:15.577Z,16.77
2023-02-15T07:38:44.550Z,15.10
2023-02-15T07:41:13.808Z,15.85
2023-02-15T07:43:43.631Z,17.25
2023-02-15T07:46:13.654Z,18.40
2023-02-15T07:48:42.379Z,15.95
2023-02-15T07:51:11.968Z,16.50
2023-02-15T07:53:44.072Z,16.50
2023-02-15T07:56:18.176Z,17.05
2023-02-15T07:58:52.990Z,17.98
2023-02-15T08:01:22.171Z,18.85
2023-02-15T08:03:50.894Z,18.42
2023-02-15T08:06:21.770Z,19.67
2023-02-15T08:08:51.521Z,20.73
2023-02-15T08:11:38.446Z,18.45
2023-02-15T08:14:08.169Z,20.55
2023-02-15T08:16:37.555Z,21.02
2023-02-15T08:19:09.060Z,20.90
2023-02-15T08:21:38.202Z,21.45
2023-02-15T08:24:15.830Z,20.27
2023-02-15T08:26:46.012Z,22.80
2023-02-15T08:29:14.868Z,21.73
2023-02-15T08:31:43.956Z,21.67
2023-02-15T08:34:19.867Z,20.42
2023-02-15T08:36:56.658Z,22.65
2023-02-15T08:39:26.496Z,21.20
2023-02-15T08:41:54.884Z,22.60
2023-02-15T08:44:23.503Z,21.70
2023-02-15T08:46:52.157Z,23.30
2023-02-15T08:49:21.946Z,22.35
2023-02-15T08:51:51.309Z,23.50
2023-02-15T08:54:23.633Z,21.10
2023-02-15T08:56:53.309Z,22.92
2023-02-15T08:59:27.993Z,22.65
2023-02-15T09:01:56.722Z,22.00
2023-02-15T09:04:29.794Z,24.02
2023-02-15T09:07:00.452Z,22.75
2023-02-15T09:09:28.906Z,25.83
2023-02-15T09:11:59.658Z,23.92
2023-02-15T09:14:28.068Z,25.23
2023-02-15T09:16:59.154Z,26.60
2023-02-15T09:19:27.696Z,25.85
2023-02-15T09:21:56.480Z,23.80
2023-02-15T09:24:25.217Z,26.27
2023-02-15T09:26:53.520Z,27.05
2023-02-15T09:29:23.686Z,27.33
2023-02-15T09:31:54.494Z,27.40
2023-02-15T09:34:24.148Z,26.60
2023-02-15T09:36:53.101Z,26.83
2023-02-15T09:39:22.253Z,26.77
2023-02-15T09:42:22.162Z,26.38
2023-02-15T09:45:01.144Z,28.70
2023-02-15T09:47:39.735Z,27.20
2023-02-15T09:50:14.698Z,28.67
2023-02-15T09:52:51.673Z,28.33
2023-02-15T09:55:36.562Z,28.00
2023-02-15T09:58:08.574Z,25.98
2023-02-15T10:00:43.655Z,26.67
2023-02-15T10:03:18.621Z,28.80
2023-02-15T10:05:54.047Z,28.13
2023-02-15T10:08:34.700Z,28.35
2023-02-15T10:11:22.508Z,27.08
2023-02-15T10:13:57.415Z,29.58
2023-02-15T10:16:29.511Z,27.88
2023-02-15T10:19:01.253Z,28.80
2023-02-15T10:21:41.358Z,28.15
2023-02-15T10:24:17.907Z,26.65
2023-02-15T10:26:50.195Z,30.98
2023-02-15T10:29:23.723Z,27.15
2023-02-15T10:31:54.955Z,28.65
2023-02-15T10:34:28.924Z,28.70
2023-02-15T10:37:17.504Z,27.58
2023-02-15T10:39:53.926Z,29.27
2023-02-15T10:42:27.498Z,27.73
2023-02-15T10:45:05.025Z,29.25
2023-02-15T10:47:45.352Z,27.73
2023-02-15T10:50:20.220Z,29.35
2023-02-15T10:52:56.755Z,27.60
2023-02-15T10:55:28.692Z,29.33
2023-02-15T10:58:06.922Z,28.58
2023-02-15T11:00:40.199Z,28.23
2023-02-15T11:03:19.620Z,29.15
2023-02-15T11:05:55.861Z,29.92
2023-02-15T11:08:26.388Z,29.08
2023-02-15T11:10:59.298Z,28.33
2023-02-15T11:13:29.695Z,27.35
2023-02-15T11:16:00.309Z,26.13
2023-02-15T11:18:31.879Z,29.00
2023-02-15T11:21:03.055Z,29.90
2023-02-15T11:23:31.654Z,28.65
2023-02-15T11:26:01.280Z,29.73
2023-02-15T11:28:32.993Z,29.23
2023-02-15T11:31:04.933Z,27.83
2023-02-15T11:33:37.902Z,28.10
2023-02-15T11:36:08.456Z,29.02
2023-02-15T11:38:40.615Z,27.98
2023-02-15T11:41:12.581Z,29.40
2023-02-15T11:43:42.166Z,28.98
2023-02-15T11:46:12.493Z,29.52
2023-02-15T11:48:44.758Z,28.42
2023-02-15T11:51:18.763Z,29.65
2023-02-15T11:53:50.331Z,27.42
2023-02-15T11:56:19.679Z,27.63
2023-02-15T11:58:50.678Z,27.30
2023-02-15T12:01:20.931Z,28.95
2023-02-15T12:03:51.563Z,27.38
2023-02-15T12:06:23.309Z,28.92
2023-02-15T12:08:56.691Z,27.27
2023-02-15T12:11:28.390Z,28.02
2023-02-15T12:13:57.930Z,27.08
2023-02-15T12:16:26.469Z,28.13
2023-02-15T12:19:00.338Z,26.52
2023-02-15T12:21:33.153Z,25.77
2023-02-15T12:24:07.766Z,28.30
2023-02-15T12:26:40.021Z,25.23
2023-02-15T12:29:10.157Z,26.10
2023-02-15T12:31:42.241Z,24.27
2023-02-15T12:34:15.544Z,25.20
2023-02-15T12:36:47.942Z,24.95
2023-02-15T12:39:21.680Z,25.55
2023-02-15T12:42:00.298Z,24.25
2023-02-15T12:44:30.054Z,25.83
2023-02-15T12:46:59.709Z,25.83
2023-02-15T12:49:29.569Z,25.45
2023-02-15T12:51:59.398Z,24.98
2023-02-15T12:54:31.586Z,24.63
2023-02-15T12:57:00.476Z,24.17
2023-02-15T12:59:28.732Z,25.33
2023-02-15T13:01:57.487Z,24.50
2023-02-15T13:04:27.541Z,24.17
2023-02-15T13:06:58.663Z,23.27
2023-02-15T13:09:37.728Z,24.83
2023-02-15T13:12:13.845Z,23.98
2023-02-15T13:14:48.359Z,25.52
2023-02-15T13:17:18.811Z,23.65
2023-02-15T13:19:48.558Z,25.10
2023-02-15T13:22:19.474Z,23.48
2023-02-15T13:24:49.721Z,22.98
2023-02-15T13:27:19.620Z,25.05
2023-02-15T13:29:49.872Z,24.90
2023-02-15T13:32:28.188Z,25.50
2023-02-15T13:34:57.864Z,24.55
2023-02-15T13:37:38.602Z,23.20
2023-02-15T13:40:11.541Z,22.45
2023-02-15T13:42:42.323Z,23.38
2023-02-15T13:45:16.613Z,21.00
2023-02-15T13:47:49.261Z,21.63
2023-02-15T13:50:25.681Z,23.02
2023-02-15T13:52:59.840Z,22.40
2023-02-15T13:55:32.380Z,21.85
2023-02-15T13:58:17.207Z,20.63
2023-02-15T14:00:54.366Z,20.88
2023-02-15T14:03:43.244Z,21.10
2023-02-15T14:06:22.608Z,20.45
2023-02-15T14:09:00.069Z,21.10
2023-02-15T14:11:32.622Z,20.13
2023-02-15T14:14:09.783Z,21.08
2023-02-15T14:16:42.042Z,21.15
2023-02-15T14:19:16.043Z,22.02
2023-02-15T14:21:46.574Z,19.77
2023-02-15T14:24:20.723Z,20.58
2023-02-15T14:26:53.316Z,22.02
2023-02-15T14:29:26.899Z,21.10
2023-02-15T14:32:01.466Z,22.65
2023-02-15T14:34:47.002Z,21.27
2023-02-15T14:37:18.938Z,22.98
2023-02-15T14:40:12.424Z,22.60
2023-02-15T14:42:46.868Z,21.17
2023-02-15T14:45:21.295Z,21.50
2023-02-15T14:47:51.730Z,23.27
2023-02-15T14:50:45.289Z,23.27
2023-02-15T14:53:36.797Z,21.90
2023-02-15T14:56:22.840Z,21.60
2023-02-15T14:59:17.996Z,23.50
2023-02-15T15:01:54.038Z,23.80
2023-02-15T15:04:28.636Z,23.67
2023-02-15T15:07:07.862Z,23.50
2023-02-15T15:09:37.475Z,22.42
2023-02-15T15:12:39.521Z,24.02
2023-02-15T15:15:11.988Z,21.95
2023-02-15T15:17:54.838Z,23.58
2023-02-15T15:20:38.132Z,24.00
2023-02-15T15:23:31.632Z,22.95
2023-02-15T15:26:01.001Z,21.98
2023-02-15T15:28:48.140Z,23.60
2023-02-15T15:31:23.799Z,24.50
2023-02-15T15:34:18.808Z,24.50
2023-02-15T15:36:59.430Z,24.20
2023-02-15T15:39:41.546Z,23.40
2023-02-15T15:42:14.860Z,24.02
2023-02-15T15:45:04.176Z,24.00
2023-02-15T15:47:43.026Z,24.45
2023-02-15T15:50:15.283Z,24.08
2023-02-15T15:52:46.200Z,23.83
2023-02-15T15:55:20.543Z,23.48
2023-02-15T15:57:55.279Z,25.02
2023-02-15T16:00:33.059Z,25.55
2023-02-15T16:03:05.326Z,26.52
2023-02-15T16:05:39.902Z,24.55
2023-02-15T16:08:08.706Z,26.63
2023-02-15T16:10:38.901Z,26.00
2023-02-15T16:13:08.761Z,25.67
2023-02-15T16:15:39.668Z,26.55
2023-02-15T16:18:16.543Z,27.95
2023-02-15T16:20:53.928Z,27.33
2023-02-15T16:23:35.053Z,27.30
2023-02-15T16:26:08.331Z,26.17
2023-02-15T16:28:36.673Z,25.27
2023-02-15T16:31:11.893Z,28.02
2023-02-15T16:33:46.378Z,26.00
2023-02-15T16:36:15.904Z,24.63
2023-02-15T16:39:08.621Z,27.90
2023-02-15T16:41:44.833Z,26.75
2023-02-15T16:44:17.088Z,26.85
2023-02-15T16:46:51.151Z,28.00
2023-02-15T16:49:21.964Z,27.23
2023-02-15T16:51:57.482Z,28.08
2023-02-15T16:54:28.814Z,27.63
2023-02-15T16:56:57.350Z,27.75
2023-02-15T16:59:36.034Z,28.48
2023-02-15T17:02:06.991Z,27.77
2023-02-15T17:04:39.124Z,26.98
2023-02-15T17:07:08.407Z,29.52
2023-02-15T17:09:36.755Z,28.98
2023-02-15T17:12:08.531Z,28.65
2023-02-15T17:14:41.208Z,29.15
2023-02-15T17:17:10.642Z,28.40
2023-02-15T17:19:50.596Z,27.27
2023-02-15T17:22:27.873Z,28.08
2023-02-15T17:25:05.536Z,28.60
2023-02-15T17:27:35.997Z,27.40
2023-02-15T17:30:06.101Z,27.38
2023-02-15T17:32:37.232Z,27.55
2023-02-15T17:35:11.572Z,27.75
2023-02-15T17:37:47.477Z,27.58
2023-02-15T17:40:30.587Z,28.45
2023-02-15T17:42:59.121Z,30.33
2023-02-15T17:45:31.078Z,27.55
2023-02-15T17:48:00.228Z,28.75
2023-02-15T17:50:32.572Z,27.10
2023-02-15T17:53:02.513Z,27.30
2023-02-15T17:55:36.555Z,25.58
2023-02-15T17:58:05.746Z,25.13
2023-02-15T18:00:52.090Z,27.38
2023-02-15T18:03:41.107Z,26.95
2023-02-15T18:06:28.665Z,26.85
2023-02-15T18:09:14.618Z,26.23
2023-02-15T18:11:48.512Z,26.92
2023-02-15T18:14:16.767Z,27.40
2023-02-15T18:16:48.498Z,26.60
2023-02-15T18:19:21.230Z,27.65
2023-02-15T18:21:55.687Z,26.50
2023-02-15T18:24:25.332Z,26.10
2023-02-15T18:26:53.873Z,26.48
2023-02-15T18:29:24.770Z,26.85
2023-02-15T18:31:54.778Z,25.25
2023-02-15T18:34:25.619Z,27.63
2023-02-15T18:36:55.663Z,26.17
2023-02-15T18:39:31.082Z,25.90
2023-02-15T18:41:59.564Z,25.45
2023-02-15T18:44:28.074Z,25.58
2023-02-15T18:46:58.714Z,23.90
2023-02-15T18:49:27.105Z,25.85
2023-02-15T18:51:56.890Z,24.30
2023-02-15T18:54:26.417Z,23.40
2023-02-15T18:56:56.862Z,24.33
2023-02-15T18:59:25.527Z,25.02
2023-02-15T19:01:54.320Z,24.23
2023-02-15T19:04:26.000Z,24.08
2023-02-15T19:06:54.661Z,24.65
2023-02-15T19:09:26.257Z,24.08
2023-02-15T19:11:55.827Z,24.48
2023-02-15T19:14:28.347Z,25.58
2023-02-15T19:16:57.038Z,25.27
2023-02-15T19:19:28.010Z,27.33
2023-02-15T19:22:00.113Z,23.73
2023-02-15T19:24:33.487Z,24.88
2023-02-15T19:27:02.707Z,25.17
2023-02-15T19:29:32.082Z,25.15
2023-02-15T19:32:00.498Z,25.50
2023-02-15T19:34:30.705Z,24.85
2023-02-15T19:37:00.283Z,24.73
2023-02-15T19:39:34.700Z,25.83
2023-02-15T19:42:09.759Z,25.70
2023-02-15T19:44:43.814Z,25.98
2023-02-15T19:47:16.305Z,26.42
2023-02-15T19:49:44.861Z,24.27
2023-02-15T19:52:18.329Z,26.48
2023-02-15T19:54:48.105Z,26.85
2023-02-15T19:57:17.195Z,24.00
2023-02-15T19:59:45.852Z,26.55
2023-02-15T20:02:20.166Z,25.58
2023-02-15T20:04:48.797Z,26.92
2023-02-15T20:07:22.064Z,23.85
2023-02-15T20:09:59.012Z,25.77
2023-02-15T20:12:29.476Z,26.60
2023-02-15T20:14:58.484Z,26.88
2023-02-15T20:17:28.989Z,23.70
2023-02-15T20:20:02.193Z,25.83
2023-02-15T20:22:31.303Z,25.98
2023-02-15T20:25:03.511Z,23.83
2023-02-15T20:27:37.851Z,26.45
2023-02-15T20:30:11.102Z,24.58
2023-02-15T20:32:44.174Z,23.85
2023-02-15T20:35:16.891Z,24.63
2023-02-15T20:37:45.741Z,24.60
2023-02-15T20:40:20.494Z,24.20
2023-02-15T20:42:49.151Z,25.73
2023-02-15T20:45:18.678Z,25.45
2023-02-15T20:47:48.642Z,26.20
2023-02-15T20:50:18.329Z,24.52
2023-02-15T20:52:46.902Z,24.50
2023-02-15T20:55:20.748Z,24.75
2023-02-15T20:57:49.886Z,25.02
2023-02-15T21:00:20.583Z,24.45
2023-02-15T21:02:50.061Z,25.55
2023-02-15T21:05:19.414Z,23.50
2023-02-15T21:07:49.994Z,24.77
2023-02-15T21:10:21.017Z,23.25
2023-02-15T21:12:49.761Z,22.55
2023-02-15T21:15:35.017Z,23.30
2023-02-15T21:18:06.384Z,22.58
2023-02-15T21:20:35.454Z,24.15
2023-02-15T21:23:05.516Z,22.88
2023-02-15T21:25:39.227Z,24.40
2023-02-15T21:28:10.286Z,23.27
2023-02-15T21:30:38.611Z,22.33
2023-02-15T21:33:06.933Z,21.70
2023-02-15T21:35:41.841Z,24.35
2023-02-15T21:38:17.373Z,23.75
2023-02-15T21:40:47.092Z,22.83
2023-02-15T21:43:33.948Z,23.95
2023-02-15T21:46:30.547Z,24.63
2023-02-15T21:48:58.962Z,24.63
2023-02-15T21:51:45.207Z,23.95
2023-02-15T21:54:18.659Z,23.10
2023-02-15T21:56:50.950Z,24.40
2023-02-15T21:59:19.748Z,23.98
2023-02-15T22:01:49.915Z,22.60
2023-02-15T22:04:23.116Z,25.00
2023-02-15T22:06:54.075Z,24.65
2023-02-15T22:09:23.414Z,24.13
2023-02-15T22:11:53.515Z,24.05
2023-02-15T22:14:45.615Z,24.55
2023-02-15T22:17:16.433Z,24.48
2023-02-15T22:19:45.684Z,25.60
2023-02-15T22:22:14.808Z,24.40
2023-02-15T22:24:45.725Z,23.02
2023-02-15T22:27:19.463Z,23.58
2023-02-15T22:29:48.756Z,26.08
2023-02-15T22:32:19.046Z,24.17
2023-02-15T22:34:52.078Z,22.67
2023-02-15T22:37:20.591Z,25.38
2023-02-15T22:39:48.870Z,25.25
2023-02-15T22:42:21.829Z,23.50
2023-02-15T22:44:50.221Z,25.85
2023-02-15T22:47:26.059Z,25.55
2023-02-15T22:49:54.606Z,25.17
2023-02-15T22:52:27.888Z,26.23
2023-02-15T22:54:56.190Z,26.05
2023-02-15T22:57:30.140Z,28.08
2023-02-15T23:00:01.639Z,26.75
2023-02-15T23:02:32.309Z,28.08
2023-02-15T23:05:00.637Z,26.20
2023-02-15T23:07:29.638Z,26.30
2023-02-15T23:09:58.333Z,26.02
2023-02-15T23:12:28.782Z,26.27
2023-02-15T23:14:57.513Z,27.70
2023-02-15T23:17:28.205Z,28.17
2023-02-15T23:20:03.817Z,28.20
2023-02-15T23:22:32.127Z,29.42
2023-02-15T23:25:04.966Z,26.45
2023-02-15T23:27:54.822Z,28.13
2023-02-15T23:30:28.167Z,28.08
2023-02-15T23:32:57.419Z,27.20
2023-02-15T23:35:25.921Z,28.08
2023-02-15T23:37:54.286Z,30.17
2023-02-15T23:40:40.761Z,28.65
2023-02-15T23:43:17.979Z,29.10
2023-02-15T23:45:48.969Z,26.80
2023-02-15T23:48:33.476Z,27.60
2023-02-15T23:51:06.600Z,30.70
2023-02-15T23:53:35.136Z,29.63
2023-02-15T23:56:03.722Z,29.40
2023-02-15T23:58:38.189Z,28.88
